createdAt,value
2023-01-11T00:03:04.103Z,68.36
2023-01-11T00:06:08.243Z,68.87
2023-01-11T00:09:10.563Z,68.57
2023-01-11T00:12:14.293Z,68.22
2023-01-11T00:15:17.171Z,68.65
2023-01-11T00:18:19.663Z,68.50
2023-01-11T00:21:22.635Z,68.56
2023-01-11T00:24:24.911Z,69.18
2023-01-11T00:27:27.184Z,69.86
2023-01-11T00:30:29.508Z,69.33
2023-01-11T00:33:31.896Z,68.47
2023-01-11T00:36:34.971Z,68.83
2023-01-11T00:39:37.281Z,68.68
2023-01-11T00:42:58.209Z,68.97
2023-01-11T00:46:19.068Z,68.56
2023-01-11T00:49:21.676Z,69.03
2023-01-11T00:52:24.037Z,68.87
2023-01-11T00:55:26.908Z,68.89
2023-01-11T00:58:29.104Z,68.29
2023-01-11T01:01:31.792Z,68.63
2023-01-11T01:04:34.920Z,67.92
2023-01-11T01:07:37.755Z,67.71
2023-01-11T01:10:39.953Z,67.93
2023-01-11T01:14:00.820Z,68.05
2023-01-11T01:17:09.012Z,67.89
2023-01-11T01:20:11.657Z,68.48
2023-01-11T01:23:13.924Z,68.07
2023-01-11T01:26:16.194Z,67.98
2023-01-11T01:29:18.497Z,68.21
2023-01-11T01:32:20.779Z,68.05
2023-01-11T01:35:23.144Z,67.97
2023-01-11T01:38:25.495Z,67.52
2023-01-11T01:41:28.440Z,67.67
2023-01-11T01:44:54.461Z,67.31
2023-01-11T01:48:01.987Z,67.84
2023-01-11T01:51:06.169Z,67.81
2023-01-11T01:54:13.230Z,67.52
2023-01-11T01:57:21.643Z,67.89
2023-01-11T02:00:24.121Z,67.67
2023-01-11T02:03:27.095Z,68.11
2023-01-11T02:06:29.393Z,68.18
2023-01-11T02:09:45.768Z,67.53
2023-01-11T02:12:57.087Z,68.47
2023-01-11T02:16:08.462Z,68.45
2023-01-11T02:19:18.813Z,68.44
2023-01-11T02:22:34.350Z,67.96
2023-01-11T02:25:54.741Z,68.51
2023-01-11T02:29:03.429Z,68.36
2023-01-11T02:32:29.089Z,67.73
2023-01-11T02:35:31.425Z,68.40
2023-01-11T02:38:46.626Z,68.49
2023-01-11T02:42:17.638Z,68.81
2023-01-11T02:45:32.470Z,67.74
2023-01-11T02:48:42.254Z,67.90
2023-01-11T02:51:52.043Z,67.76
2023-01-11T02:54:57.906Z,67.54
2023-01-11T02:58:02.623Z,68.00
2023-01-11T03:01:05.105Z,68.57
2023-01-11T03:04:29.867Z,68.45
2023-01-11T03:07:47.605Z,68.59
2023-01-11T03:11:05.884Z,68.42
2023-01-11T03:14:35.670Z,68.30
2023-01-11T03:17:40.932Z,68.56
2023-01-11T03:20:49.782Z,68.53
2023-01-11T03:23:57.911Z,69.01
2023-01-11T03:27:00.117Z,68.17
2023-01-11T03:30:21.699Z,68.74
2023-01-11T03:33:50.180Z,68.27
2023-01-11T03:37:24.983Z,67.97
2023-01-11T03:40:30.788Z,68.46
2023-01-11T03:43:34.667Z,68.53
2023-01-11T03:46:40.314Z,69.25
2023-01-11T03:50:07.294Z,68.78
2023-01-11T03:53:10.749Z,68.82
2023-01-11T03:56:16.264Z,69.01
2023-01-11T03:59:18.617Z,69.50
2023-01-11T04:02:24.915Z,68.59
2023-01-11T04:05:27.297Z,68.83
2023-01-11T04:08:31.273Z,68.87
2023-01-11T04:11:33.707Z,68.91
2023-01-11T04:14:36.194Z,68.22
2023-01-11T04:17:38.511Z,68.53
2023-01-11T04:20:41.360Z,68.57
2023-01-11T04:23:43.649Z,68.78
2023-01-11T04:26:45.924Z,69.45
2023-01-11T04:29:48.245Z,69.68
2023-01-11T04:32:50.598Z,69.14
2023-01-11T04:35:52.832Z,68.29
2023-01-11T04:38:55.154Z,68.57
2023-01-11T04:42:16.118Z,68.07
2023-01-11T04:45:18.381Z,68.43
2023-01-11T04:48:20.787Z,68.82
2023-01-11T04:51:23.243Z,69.03
2023-01-11T04:54:25.520Z,68.46
2023-01-11T04:57:27.809Z,68.94
2023-01-11T05:00:30.153Z,68.90
2023-01-11T05:03:32.953Z,68.80
2023-01-11T05:06:35.335Z,68.57
2023-01-11T05:09:37.641Z,68.14
2023-01-11T05:12:40.021Z,68.33
2023-01-11T05:15:42.334Z,69.50
2023-01-11T05:18:49.504Z,69.46
2023-01-11T05:21:51.880Z,69.53
2023-01-11T05:24:54.111Z,69.51
2023-01-11T05:27:56.433Z,69.87
2023-01-11T05:30:58.844Z,69.77
2023-01-11T05:34:01.220Z,69.74
2023-01-11T05:37:03.530Z,70.03
2023-01-11T05:40:06.952Z,69.57
2023-01-11T05:43:09.355Z,69.77
2023-01-11T05:46:12.539Z,70.39
2023-01-11T05:49:15.125Z,70.14
2023-01-11T05:52:17.690Z,70.55
2023-01-11T05:55:20.167Z,69.54
2023-01-11T05:58:23.723Z,68.02
2023-01-11T06:01:26.412Z,67.72
2023-01-11T06:04:28.820Z,66.39
2023-01-11T06:07:33.152Z,65.95
2023-01-11T06:10:38.552Z,68.21
2023-01-11T06:13:40.841Z,67.43
2023-01-11T06:16:43.483Z,67.30
2023-01-11T06:19:51.310Z,67.68
2023-01-11T06:22:53.839Z,67.38
2023-01-11T06:26:01.287Z,67.39
2023-01-11T06:29:03.604Z,67.37
2023-01-11T06:32:16.295Z,67.87
2023-01-11T06:35:19.842Z,67.05
2023-01-11T06:38:24.283Z,66.98
2023-01-11T06:41:29.030Z,67.31
2023-01-11T06:44:31.262Z,67.92
2023-01-11T06:47:33.579Z,67.47
2023-01-11T06:50:35.946Z,67.50
2023-01-11T06:53:38.481Z,67.36
2023-01-11T06:56:41.269Z,67.63
2023-01-11T06:59:44.274Z,66.84
2023-01-11T07:02:47.555Z,66.18
2023-01-11T07:05:50.285Z,67.12
2023-01-11T07:08:58.863Z,67.68
2023-01-11T07:12:10.971Z,68.31
2023-01-11T07:15:13.581Z,67.50
2023-01-11T07:18:19.504Z,67.41
2023-01-11T07:21:21.970Z,68.27
2023-01-11T07:24:25.315Z,68.89
2023-01-11T07:27:36.285Z,69.54
2023-01-11T07:30:55.587Z,69.92
2023-01-11T07:33:58.914Z,69.08
2023-01-11T07:37:01.231Z,69.31
2023-01-11T07:40:03.813Z,69.03
2023-01-11T07:43:14.378Z,69.83
2023-01-11T07:46:20.307Z,69.93
2023-01-11T07:49:25.830Z,69.26
2023-01-11T07:52:28.174Z,68.41
2023-01-11T07:55:31.495Z,69.12
2023-01-11T07:58:39.384Z,68.23
2023-01-11T08:02:02.018Z,70.31
2023-01-11T08:05:08.842Z,68.39
2023-01-11T08:08:16.067Z,68.43
2023-01-11T08:11:37.063Z,69.23
2023-01-11T08:14:39.349Z,68.44
2023-01-11T08:17:41.726Z,67.46
2023-01-11T08:20:44.140Z,67.56
2023-01-11T08:23:46.482Z,68.48
2023-01-11T08:26:49.999Z,67.80
2023-01-11T08:29:52.359Z,67.47
2023-01-11T08:32:54.747Z,68.82
2023-01-11T08:35:57.134Z,67.17
2023-01-11T08:38:59.524Z,68.18
2023-01-11T08:42:03.375Z,67.41
2023-01-11T08:46:37.466Z,67.63
2023-01-11T08:49:43.164Z,67.45
2023-01-11T08:52:45.415Z,67.93
2023-01-11T08:59:32.595Z,67.88
2023-01-11T09:02:36.754Z,65.12
2023-01-11T09:05:48.116Z,64.36
2023-01-11T09:08:59.432Z,64.22
2023-01-11T09:12:11.799Z,63.34
2023-01-11T09:15:15.296Z,60.13
2023-01-11T09:18:17.644Z,60.05
2023-01-11T09:21:26.768Z,59.07
2023-01-11T09:24:30.789Z,57.49
2023-01-11T09:27:33.348Z,57.42
2023-01-11T09:30:36.767Z,55.61
2023-01-11T09:33:39.343Z,56.02
2023-01-11T09:36:41.822Z,54.54
2023-01-11T09:39:44.810Z,54.44
2023-01-11T09:42:52.716Z,53.56
2023-01-11T09:46:00.502Z,53.57
2023-01-11T09:49:03.533Z,53.13
2023-01-11T09:52:39.547Z,52.94
2023-01-11T09:55:50.563Z,51.11
2023-01-11T09:59:19.288Z,52.11
2023-01-11T10:02:31.710Z,51.24
2023-01-11T10:06:07.048Z,51.18
2023-01-11T10:18:37.852Z,49.29
2023-01-11T10:20:35.536Z,49.00
2023-01-11T10:23:49.613Z,47.84
2023-01-11T10:26:59.655Z,49.12
2023-01-11T10:30:32.834Z,47.94
2023-01-11T10:33:52.274Z,49.02
2023-01-11T10:37:30.659Z,46.61
2023-01-11T10:45:12.348Z,48.26
2023-01-11T10:48:38.842Z,48.49
2023-01-11T10:53:17.927Z,48.84
2023-01-11T10:57:03.125Z,49.10
2023-01-11T11:01:11.366Z,48.59
2023-01-11T11:04:40.260Z,48.86
2023-01-11T11:07:56.178Z,50.37
2023-01-11T11:11:01.953Z,48.38
2023-01-11T11:14:13.483Z,47.91
2023-01-11T11:17:24.484Z,46.50
2023-01-11T11:20:32.530Z,47.89
2023-01-11T11:23:35.268Z,46.26
2023-01-11T11:26:41.645Z,45.57
2023-01-11T11:29:50.110Z,44.12
2023-01-11T11:33:00.423Z,46.33
2023-01-11T11:36:05.573Z,47.01
2023-01-11T11:39:19.971Z,45.65
2023-01-11T11:42:23.218Z,47.69
2023-01-11T11:45:27.721Z,44.05
2023-01-11T11:48:34.665Z,45.13
2023-01-11T11:51:37.147Z,43.89
2023-01-11T11:54:50.049Z,44.11
2023-01-11T11:57:52.569Z,43.69
2023-01-11T12:00:55.105Z,44.08
2023-01-11T12:04:21.485Z,43.51
2023-01-11T12:07:40.465Z,44.24
2023-01-11T12:10:58.064Z,44.86
2023-01-11T12:14:16.567Z,46.66
2023-01-11T12:17:26.005Z,44.47
2023-01-11T12:20:34.037Z,45.94
2023-01-11T12:23:36.706Z,46.43
2023-01-11T12:27:16.310Z,46.04
2023-01-11T12:30:35.709Z,45.61
2023-01-11T12:33:41.371Z,45.97
2023-01-11T12:36:46.565Z,44.61
2023-01-11T12:40:10.907Z,44.66
2023-01-11T12:43:34.524Z,45.05
2023-01-11T12:47:05.567Z,43.79
2023-01-11T12:50:17.413Z,45.33
2023-01-11T12:53:49.063Z,46.33
2023-01-11T12:57:10.685Z,45.12
2023-01-11T13:00:50.691Z,44.26
2023-01-11T13:04:21.031Z,45.27
2023-01-11T13:07:34.702Z,47.26
2023-01-11T13:10:45.586Z,46.33
2023-01-11T13:14:01.414Z,45.64
2023-01-11T13:17:12.706Z,46.04
2023-01-11T13:20:20.896Z,45.00
2023-01-11T13:23:53.631Z,44.73
2023-01-11T13:32:01.084Z,46.68
2023-01-11T13:35:16.086Z,46.81
2023-01-11T13:38:30.664Z,45.98
2023-01-11T13:41:46.554Z,46.48
2023-01-11T13:44:56.862Z,47.34
2023-01-11T13:48:06.519Z,48.23
2023-01-11T13:51:11.958Z,46.55
2023-01-11T13:54:42.016Z,47.96
2023-01-11T13:57:53.647Z,47.07
2023-01-11T14:01:20.614Z,47.10
2023-01-11T14:04:33.713Z,47.50
2023-01-11T14:07:51.250Z,46.95
2023-01-11T14:11:10.561Z,48.63
2023-01-11T14:14:33.884Z,48.20
2023-01-11T14:18:11.684Z,51.13
2023-01-11T14:21:30.299Z,51.57
2023-01-11T14:24:36.077Z,50.88
2023-01-11T14:28:05.887Z,51.82
2023-01-11T14:31:26.579Z,50.69
2023-01-11T14:35:06.481Z,52.89
2023-01-11T14:38:36.015Z,53.25
2023-01-11T14:41:57.285Z,52.70
2023-01-11T14:45:28.919Z,51.97
2023-01-11T14:48:50.201Z,52.79
2023-01-11T14:52:03.960Z,53.67
2023-01-11T14:55:30.938Z,53.09
2023-01-11T14:58:33.252Z,53.17
2023-01-11T15:02:03.565Z,53.94
2023-01-11T15:05:10.797Z,54.01
2023-01-11T15:08:14.262Z,54.42
2023-01-11T15:11:35.735Z,54.70
2023-01-11T15:14:38.160Z,54.23
2023-01-11T15:18:00.467Z,54.30
2023-01-11T15:21:05.206Z,54.68
2023-01-11T15:24:22.298Z,54.95
2023-01-11T15:27:28.115Z,55.51
2023-01-11T15:30:30.466Z,54.74
2023-01-11T15:34:16.614Z,56.91
2023-01-11T15:42:10.259Z,57.40
2023-01-11T15:46:07.833Z,58.80
2023-01-11T15:49:31.525Z,59.43
2023-01-11T15:52:52.669Z,60.17
2023-01-11T15:56:10.218Z,60.80
2023-01-11T16:00:15.898Z,62.63
2023-01-11T16:04:05.285Z,61.74
2023-01-11T16:07:28.915Z,61.57
2023-01-11T16:10:46.530Z,62.63
2023-01-11T16:14:11.858Z,63.94
2023-01-11T16:17:21.691Z,64.09
2023-01-11T16:20:26.693Z,64.01
2023-01-11T16:23:30.947Z,63.95
2023-01-11T16:26:35.163Z,64.52
2023-01-11T16:29:37.835Z,65.71
2023-01-11T16:32:40.207Z,65.65
2023-01-11T16:35:42.526Z,65.37
2023-01-11T16:38:46.463Z,65.88
2023-01-11T16:42:05.928Z,66.10
2023-01-11T16:45:14.336Z,66.24
2023-01-11T16:48:24.344Z,66.63
2023-01-11T16:51:26.643Z,66.94
2023-01-11T16:54:31.158Z,66.77
2023-01-11T16:57:37.682Z,66.23
2023-01-11T17:00:40.350Z,66.65
2023-01-11T17:03:50.691Z,66.92
2023-01-11T17:06:53.332Z,66.79
2023-01-11T17:10:24.627Z,67.79
2023-01-11T17:13:54.853Z,67.84
2023-01-11T17:17:02.909Z,67.67
2023-01-11T17:20:15.999Z,68.55
2023-01-11T17:23:18.481Z,68.27
2023-01-11T17:26:26.437Z,68.29
2023-01-11T17:29:32.291Z,68.38
2023-01-11T17:32:46.524Z,68.75
2023-01-11T17:35:48.911Z,68.46
2023-01-11T17:38:51.271Z,67.97
2023-01-11T17:42:12.163Z,67.52
2023-01-11T17:45:23.451Z,68.52
2023-01-11T17:48:27.088Z,68.25
2023-01-11T17:51:34.094Z,68.24
2023-01-11T17:54:36.398Z,68.23
2023-01-11T17:57:39.125Z,68.42
2023-01-11T18:00:43.593Z,68.96
2023-01-11T18:03:51.452Z,68.86
2023-01-11T18:07:07.282Z,68.22
2023-01-11T18:10:18.283Z,68.11
2023-01-11T18:13:31.786Z,68.57
2023-01-11T18:16:34.314Z,68.87
2023-01-11T18:19:43.226Z,68.17
2023-01-11T18:22:54.637Z,69.18
2023-01-11T18:26:36.914Z,68.94
2023-01-11T18:29:39.489Z,69.55
2023-01-11T18:32:44.647Z,69.01
2023-01-11T18:35:49.495Z,68.43
2023-01-11T18:38:51.913Z,68.50
2023-01-11T18:42:09.810Z,69.52
2023-01-11T18:45:13.121Z,68.29
2023-01-11T18:48:15.872Z,68.96
2023-01-11T18:51:36.241Z,69.44
2023-01-11T18:54:39.387Z,69.58
2023-01-11T18:57:42.473Z,68.75
2023-01-11T19:00:44.774Z,69.24
2023-01-11T19:03:47.123Z,69.33
2023-01-11T19:06:52.405Z,69.18
2023-01-11T19:09:55.084Z,67.98
2023-01-11T19:12:57.519Z,67.59
2023-01-11T19:16:02.922Z,67.97
2023-01-11T19:19:05.278Z,67.89
2023-01-11T19:22:07.702Z,68.03
2023-01-11T19:25:10.471Z,69.08
2023-01-11T19:28:12.874Z,68.44
2023-01-11T19:31:15.342Z,68.82
2023-01-11T19:34:18.106Z,69.62
2023-01-11T19:37:20.797Z,68.76
2023-01-11T19:40:23.100Z,68.75
2023-01-11T19:43:25.591Z,68.33
2023-01-11T19:46:31.878Z,68.59
2023-01-11T19:49:34.431Z,69.11
2023-01-11T19:52:36.910Z,70.26
2023-01-11T19:55:39.427Z,70.48
2023-01-11T19:58:41.772Z,68.53
2023-01-11T20:01:44.629Z,68.57
2023-01-11T20:04:47.621Z,69.12
2023-01-11T20:07:50.478Z,68.33
2023-01-11T20:10:53.645Z,69.27
2023-01-11T20:13:55.913Z,68.52
2023-01-11T20:16:58.285Z,68.80
2023-01-11T20:20:00.728Z,69.42
2023-01-11T20:23:03.325Z,67.62
2023-01-11T20:26:07.492Z,69.28
2023-01-11T20:29:09.818Z,68.46
2023-01-11T20:32:34.898Z,68.81
2023-01-11T20:35:34.467Z,68.84
2023-01-11T20:38:36.868Z,70.03
2023-01-11T20:41:48.770Z,69.13
2023-01-11T20:44:51.183Z,71.05
2023-01-11T20:47:53.435Z,70.35
2023-01-11T20:50:59.864Z,68.56
2023-01-11T20:54:02.698Z,69.40
2023-01-11T20:57:12.336Z,69.64
2023-01-11T21:00:15.191Z,69.42
2023-01-11T21:03:20.077Z,68.86
2023-01-11T21:06:22.457Z,69.44
2023-01-11T21:09:24.689Z,71.04
2023-01-11T21:12:27.044Z,70.59
2023-01-11T21:15:29.359Z,70.35
2023-01-11T21:18:31.740Z,69.47
2023-01-11T21:21:34.878Z,70.53
2023-01-11T21:24:38.940Z,70.89
2023-01-11T21:27:41.231Z,70.15
2023-01-11T21:30:43.524Z,70.32
2023-01-11T21:33:45.805Z,70.16
2023-01-11T21:36:48.197Z,69.83
2023-01-11T21:39:51.729Z,70.23
2023-01-11T21:42:54.648Z,70.35
2023-01-11T21:45:56.971Z,70.38
2023-01-11T21:48:59.274Z,70.28
2023-01-11T21:52:01.747Z,70.68
2023-01-11T21:55:04.296Z,70.95
2023-01-11T21:58:06.717Z,71.06
2023-01-11T22:01:11.460Z,70.61
2023-01-11T22:04:17.784Z,71.74
2023-01-11T22:07:20.364Z,72.05
2023-01-11T22:10:22.869Z,71.35
2023-01-11T22:13:26.841Z,71.41
2023-01-11T22:16:30.769Z,68.93
2023-01-11T22:19:33.136Z,69.55
2023-01-11T22:22:35.585Z,68.73
2023-01-11T22:25:37.987Z,69.19
2023-01-11T22:28:59.772Z,69.67
2023-01-11T22:32:04.379Z,68.74
2023-01-11T22:35:07.278Z,69.34
2023-01-11T22:38:09.643Z,68.85
2023-01-11T22:41:12.134Z,68.52
2023-01-11T22:44:14.826Z,69.71
2023-01-11T22:47:17.218Z,69.71
2023-01-11T22:50:19.634Z,69.97
2023-01-11T22:53:22.075Z,69.83
2023-01-11T22:56:26.502Z,69.74
2023-01-11T22:59:28.920Z,70.25
2023-01-11T23:02:31.269Z,69.47
2023-01-11T23:05:33.620Z,70.67
2023-01-11T23:08:43.522Z,69.92
2023-01-11T23:12:04.504Z,69.59
2023-01-11T23:15:07.654Z,69.22
2023-01-11T23:18:11.544Z,69.83
2023-01-11T23:21:14.348Z,70.71
2023-01-11T23:24:17.140Z,70.52
2023-01-11T23:27:19.561Z,70.63
2023-01-11T23:30:22.111Z,70.01
2023-01-11T23:33:24.560Z,70.23
2023-01-11T23:36:32.044Z,69.78
2023-01-11T23:39:34.399Z,70.28
2023-01-11T23:42:38.451Z,70.25
2023-01-11T23:45:40.880Z,70.61
2023-01-11T23:48:43.190Z,70.68
2023-01-11T23:51:45.470Z,70.71
2023-01-11T23:54:48.271Z,70.49
2023-01-11T23:58:08.932Z,70.43
